sensor_id;sensor_type;location;lat;lon;timestamp;pressure;altitude;pressure_sealevel;temperature;humidity
55755;BME280;41674;52.290;-1.474;2023-11-21T00:00:29;100971.89;;;7.58;100.00
55755;BME280;41674;52.290;-1.474;2023-11-21T00:02:59;100969.05;;;8.14;100.00
55755;BME280;41674;52.290;-1.474;2023-11-21T00:05:29;100968.96;;;8.36;100.00
55755;BME280;41674;52.290;-1.474;2023-11-21T00:07:58;100974.00;;;8.50;100.00
55755;BME280;41674;52.290;-1.474;2023-11-21T00:10:28;100980.80;;;8.20;100.00
55755;BME280;41674;52.290;-1.474;2023-11-21T00:12:58;100980.44;;;8.36;100.00
55755;BME280;41674;52.290;-1.474;2023-11-21T00:15:27;100981.02;;;8.54;100.00
55755;BME280;41674;52.290;-1.474;2023-11-21T00:17:56;100987.39;;;8.16;100.00
55755;BME280;41674;52.290;-1.474;2023-11-21T00:20:26;100989.09;;;8.45;100.00
55755;BME280;41674;52.290;-1.474;2023-11-21T00:22:55;100988.68;;;8.55;100.00
55755;BME280;41674;52.290;-1.474;2023-11-21T00:25:25;100989.79;;;8.34;100.00
55755;BME280;41674;52.290;-1.474;2023-11-21T00:27:55;100987.70;;;8.47;100.00
55755;BME280;41674;52.290;-1.474;2023-11-21T00:30:24;100993.45;;;8.87;100.00
55755;BME280;41674;52.290;-1.474;2023-11-21T00:32:54;101004.21;;;7.38;100.00
55755;BME280;41674;52.290;-1.474;2023-11-21T00:35:23;101006.63;;;8.37;100.00
55755;BME280;41674;52.290;-1.474;2023-11-21T00:37:53;101009.58;;;8.38;100.00
55755;BME280;41674;52.290;-1.474;2023-11-21T00:40:23;101011.39;;;8.00;100.00
55755;BME280;41674;52.290;-1.474;2023-11-21T00:42:53;101013.56;;;8.46;100.00
55755;BME280;41674;52.290;-1.474;2023-11-21T00:45:22;101012.59;;;8.75;100.00
55755;BME280;41674;52.290;-1.474;2023-11-21T00:47:52;101017.78;;;8.13;100.00
55755;BME280;41674;52.290;-1.474;2023-11-21T00:50:22;101018.93;;;8.96;100.00
55755;BME280;41674;52.290;-1.474;2023-11-21T00:52:51;101021.24;;;8.81;100.00
55755;BME280;41674;52.290;-1.474;2023-11-21T00:55:20;101027.00;;;8.29;100.00
55755;BME280;41674;52.290;-1.474;2023-11-21T00:57:50;101024.69;;;8.82;100.00
55755;BME280;41674;52.290;-1.474;2023-11-21T01:00:20;101025.51;;;9.40;100.00
55755;BME280;41674;52.290;-1.474;2023-11-21T01:02:49;101030.34;;;9.22;100.00
55755;BME280;41674;52.290;-1.474;2023-11-21T01:05:19;101033.42;;;9.24;100.00
55755;BME280;41674;52.290;-1.474;2023-11-21T01:07:48;101036.62;;;9.74;100.00
55755;BME280;41674;52.290;-1.474;2023-11-21T01:10:18;101037.90;;;9.08;100.00
55755;BME280;41674;52.290;-1.474;2023-11-21T01:12:48;101053.95;;;8.39;100.00
55755;BME280;41674;52.290;-1.474;2023-11-21T01:15:17;101057.20;;;8.38;100.00
55755;BME280;41674;52.290;-1.474;2023-11-21T01:17:47;101062.23;;;8.42;100.00
55755;BME280;41674;52.290;-1.474;2023-11-21T01:20:16;101066.81;;;8.38;100.00
55755;BME280;41674;52.290;-1.474;2023-11-21T01:22:46;101068.56;;;7.89;100.00
55755;BME280;41674;52.290;-1.474;2023-11-21T01:25:16;101075.19;;;8.19;100.00
55755;BME280;41674;52.290;-1.474;2023-11-21T01:27:46;101082.90;;;7.15;100.00
55755;BME280;41674;52.290;-1.474;2023-11-21T01:30:15;101090.06;;;7.68;100.00
55755;BME280;41674;52.290;-1.474;2023-11-21T01:32:45;101095.63;;;7.97;100.00
55755;BME280;41674;52.290;-1.474;2023-11-21T01:35:14;101099.32;;;8.99;100.00
55755;BME280;41674;52.290;-1.474;2023-11-21T01:37:44;101104.12;;;8.31;100.00
55755;BME280;41674;52.290;-1.474;2023-11-21T01:40:13;101107.32;;;9.14;100.00
55755;BME280;41674;52.290;-1.474;2023-11-21T01:42:43;101107.25;;;9.77;100.00
55755;BME280;41674;52.290;-1.474;2023-11-21T01:45:13;101103.66;;;9.61;100.00
55755;BME280;41674;52.290;-1.474;2023-11-21T01:47:42;101105.94;;;9.43;100.00
55755;BME280;41674;52.290;-1.474;2023-11-21T01:50:15;101111.39;;;9.88;100.00
55755;BME280;41674;52.290;-1.474;2023-11-21T01:52:43;101119.81;;;9.39;100.00
55755;BME280;41674;52.290;-1.474;2023-11-21T01:55:11;101121.35;;;9.40;100.00
55755;BME280;41674;52.290;-1.474;2023-11-21T01:57:41;101134.43;;;8.61;100.00
55755;BME280;41674;52.290;-1.474;2023-11-21T02:00:13;101135.90;;;8.85;100.00
55755;BME280;41674;52.290;-1.474;2023-11-21T02:02:40;101138.67;;;9.02;100.00
55755;BME280;41674;52.290;-1.474;2023-11-21T02:05:10;101140.54;;;8.04;100.00
55755;BME280;41674;52.290;-1.474;2023-11-21T02:07:39;101149.15;;;8.89;100.00
55755;BME280;41674;52.290;-1.474;2023-11-21T02:10:09;101149.99;;;9.67;100.00
55755;BME280;41674;52.290;-1.474;2023-11-21T02:12:38;101155.65;;;8.57;100.00
55755;BME280;41674;52.290;-1.474;2023-11-21T02:15:09;101157.52;;;7.98;100.00
55755;BME280;41674;52.290;-1.474;2023-11-21T02:17:38;101171.17;;;7.58;100.00
55755;BME280;41674;52.290;-1.474;2023-11-21T02:20:08;101175.87;;;7.42;100.00
55755;BME280;41674;52.290;-1.474;2023-11-21T02:22:40;101183.04;;;7.15;100.00
55755;BME280;41674;52.290;-1.474;2023-11-21T02:25:07;101180.40;;;7.73;100.00
55755;BME280;41674;52.290;-1.474;2023-11-21T02:27:36;101188.56;;;8.39;100.00
55755;BME280;41674;52.290;-1.474;2023-11-21T02:30:08;101189.90;;;8.09;100.00
55755;BME280;41674;52.290;-1.474;2023-11-21T02:32:36;101192.93;;;9.32;99.15
55755;BME280;41674;52.290;-1.474;2023-11-21T02:35:05;101196.27;;;8.92;100.00
55755;BME280;41674;52.290;-1.474;2023-11-21T02:37:35;101194.79;;;9.75;95.71
55755;BME280;41674;52.290;-1.474;2023-11-21T02:40:05;101199.27;;;9.84;94.87
55755;BME280;41674;52.290;-1.474;2023-11-21T02:42:33;101199.96;;;8.56;100.00
55755;BME280;41674;52.290;-1.474;2023-11-21T02:45:04;101198.06;;;8.11;100.00
55755;BME280;41674;52.290;-1.474;2023-11-21T02:47:33;101198.55;;;7.90;100.00
55755;BME280;41674;52.290;-1.474;2023-11-21T02:50:03;101207.66;;;9.43;98.30
55755;BME280;41674;52.290;-1.474;2023-11-21T02:52:32;101210.50;;;9.76;94.87
55755;BME280;41674;52.290;-1.474;2023-11-21T02:55:02;101209.82;;;9.02;96.24
55755;BME280;41674;52.290;-1.474;2023-11-21T02:57:31;101215.05;;;8.62;98.90
55755;BME280;41674;52.290;-1.474;2023-11-21T03:00:01;101220.56;;;7.81;100.00
55755;BME280;41674;52.290;-1.474;2023-11-21T03:02:32;101224.74;;;8.25;100.00
55755;BME280;41674;52.290;-1.474;2023-11-21T03:05:00;101222.80;;;7.56;100.00
55755;BME280;41674;52.290;-1.474;2023-11-21T03:07:31;101228.64;;;7.57;100.00
55755;BME280;41674;52.290;-1.474;2023-11-21T03:09:59;101223.04;;;7.94;100.00
55755;BME280;41674;52.290;-1.474;2023-11-21T03:12:29;101227.71;;;8.15;100.00
55755;BME280;41674;52.290;-1.474;2023-11-21T03:14:59;101229.39;;;8.16;99.75
55755;BME280;41674;52.290;-1.474;2023-11-21T03:17:28;101236.83;;;8.07;99.99
55755;BME280;41674;52.290;-1.474;2023-11-21T03:19:58;101240.70;;;8.36;96.77
55755;BME280;41674;52.290;-1.474;2023-11-21T03:22:28;101240.36;;;7.73;100.00
55755;BME280;41674;52.290;-1.474;2023-11-21T03:24:57;101247.11;;;7.41;100.00
55755;BME280;41674;52.290;-1.474;2023-11-21T03:27:27;101253.26;;;8.19;99.63
55755;BME280;41674;52.290;-1.474;2023-11-21T03:29:56;101258.76;;;8.26;99.62
55755;BME280;41674;52.290;-1.474;2023-11-21T03:32:26;101266.24;;;8.36;100.00
55755;BME280;41674;52.290;-1.474;2023-11-21T03:34:57;101260.94;;;8.43;99.87
55755;BME280;41674;52.290;-1.474;2023-11-21T03:37:25;101260.76;;;7.40;100.00
55755;BME280;41674;52.290;-1.474;2023-11-21T03:39:56;101260.79;;;7.75;100.00
55755;BME280;41674;52.290;-1.474;2023-11-21T03:42:24;101257.66;;;7.50;100.00
55755;BME280;41674;52.290;-1.474;2023-11-21T03:44:54;101263.35;;;7.00;100.00
55755;BME280;41674;52.290;-1.474;2023-11-21T03:47:25;101268.88;;;7.39;100.00
55755;BME280;41674;52.290;-1.474;2023-11-21T03:49:53;101274.49;;;7.19;100.00
55755;BME280;41674;52.290;-1.474;2023-11-21T03:52:23;101277.04;;;7.58;100.00
55755;BME280;41674;52.290;-1.474;2023-11-21T03:54:52;101279.76;;;7.47;100.00
55755;BME280;41674;52.290;-1.474;2023-11-21T03:57:22;101284.10;;;7.23;100.00
55755;BME280;41674;52.290;-1.474;2023-11-21T03:59:52;101286.45;;;7.62;100.00
55755;BME280;41674;52.290;-1.474;2023-11-21T04:02:21;101288.12;;;8.08;100.00
55755;BME280;41674;52.290;-1.474;2023-11-21T04:04:51;101286.04;;;8.39;97.22
55755;BME280;41674;52.290;-1.474;2023-11-21T04:07:20;101293.98;;;7.13;100.00
55755;BME280;41674;52.290;-1.474;2023-11-21T04:09:50;101290.81;;;6.80;100.00
55755;BME280;41674;52.290;-1.474;2023-11-21T04:12:26;101297.82;;;6.84;100.00
55755;BME280;41674;52.290;-1.474;2023-11-21T04:14:49;101308.90;;;6.32;100.00
55755;BME280;41674;52.290;-1.474;2023-11-21T04:17:19;101300.08;;;6.71;100.00
55755;BME280;41674;52.290;-1.474;2023-11-21T04:19:49;101305.78;;;6.81;100.00
55755;BME280;41674;52.290;-1.474;2023-11-21T04:22:18;101312.63;;;6.95;100.00
55755;BME280;41674;52.290;-1.474;2023-11-21T04:24:48;101323.75;;;6.02;100.00
55755;BME280;41674;52.290;-1.474;2023-11-21T04:27:17;101316.90;;;6.83;100.00
55755;BME280;41674;52.290;-1.474;2023-11-21T04:29:47;101322.58;;;6.69;100.00
55755;BME280;41674;52.290;-1.474;2023-11-21T04:32:17;101328.23;;;6.67;100.00
55755;BME280;41674;52.290;-1.474;2023-11-21T04:34:46;101331.97;;;6.28;100.00
55755;BME280;41674;52.290;-1.474;2023-11-21T04:37:16;101332.01;;;6.19;100.00
55755;BME280;41674;52.290;-1.474;2023-11-21T04:39:46;101337.06;;;6.31;100.00
55755;BME280;41674;52.290;-1.474;2023-11-21T04:42:15;101341.18;;;5.97;100.00
55755;BME280;41674;52.290;-1.474;2023-11-21T04:44:45;101338.45;;;6.49;100.00
55755;BME280;41674;52.290;-1.474;2023-11-21T04:47:15;101336.34;;;6.64;100.00
55755;BME280;41674;52.290;-1.474;2023-11-21T04:49:46;101334.26;;;6.69;100.00
55755;BME280;41674;52.290;-1.474;2023-11-21T04:52:14;101345.49;;;6.74;99.69
55755;BME280;41674;52.290;-1.474;2023-11-21T04:54:43;101345.82;;;6.47;100.00
55755;BME280;41674;52.290;-1.474;2023-11-21T04:57:13;101351.76;;;6.38;100.00
55755;BME280;41674;52.290;-1.474;2023-11-21T04:59:43;101355.67;;;6.75;99.77
55755;BME280;41674;52.290;-1.474;2023-11-21T05:02:13;101365.28;;;6.17;100.00
55755;BME280;41674;52.290;-1.474;2023-11-21T05:04:42;101368.90;;;6.06;100.00
55755;BME280;41674;52.290;-1.474;2023-11-21T05:07:12;101369.07;;;6.62;98.52
55755;BME280;41674;52.290;-1.474;2023-11-21T05:09:42;101373.34;;;6.54;100.00
55755;BME280;41674;52.290;-1.474;2023-11-21T05:12:11;101375.67;;;6.63;98.16
55755;BME280;41674;52.290;-1.474;2023-11-21T05:14:40;101383.77;;;6.42;99.14
55755;BME280;41674;52.290;-1.474;2023-11-21T05:17:10;101383.22;;;7.18;96.78
55755;BME280;41674;52.290;-1.474;2023-11-21T05:19:40;101384.13;;;6.94;96.94
55755;BME280;41674;52.290;-1.474;2023-11-21T05:22:09;101389.85;;;6.95;96.24
55755;BME280;41674;52.290;-1.474;2023-11-21T05:24:39;101397.05;;;6.73;97.45
55755;BME280;41674;52.290;-1.474;2023-11-21T05:27:08;101395.58;;;6.89;96.86
55755;BME280;41674;52.290;-1.474;2023-11-21T05:29:38;101398.59;;;7.04;95.79
55755;BME280;41674;52.290;-1.474;2023-11-21T05:32:08;101397.39;;;7.34;95.37
55755;BME280;41674;52.290;-1.474;2023-11-21T05:34:38;101403.67;;;6.84;98.95
55755;BME280;41674;52.290;-1.474;2023-11-21T05:37:07;101401.63;;;7.44;96.75
55755;BME280;41674;52.290;-1.474;2023-11-21T05:42:06;101403.19;;;7.32;97.17
55755;BME280;41674;52.290;-1.474;2023-11-21T05:44:37;101410.64;;;7.43;97.26
55755;BME280;41674;52.290;-1.474;2023-11-21T05:47:05;101419.90;;;6.67;100.00
55755;BME280;41674;52.290;-1.474;2023-11-21T05:49:36;101420.24;;;6.76;99.04
55755;BME280;41674;52.290;-1.474;2023-11-21T05:52:05;101422.43;;;6.76;99.35
55755;BME280;41674;52.290;-1.474;2023-11-21T05:54:34;101428.85;;;6.58;100.00
55755;BME280;41674;52.290;-1.474;2023-11-21T05:57:04;101429.35;;;7.26;99.98
55755;BME280;41674;52.290;-1.474;2023-11-21T05:59:34;101440.10;;;7.07;100.00
55755;BME280;41674;52.290;-1.474;2023-11-21T06:02:03;101441.69;;;6.70;100.00
55755;BME280;41674;52.290;-1.474;2023-11-21T06:04:33;101443.34;;;7.24;97.23
55755;BME280;41674;52.290;-1.474;2023-11-21T06:07:03;101449.39;;;6.50;100.00
55755;BME280;41674;52.290;-1.474;2023-11-21T06:09:32;101452.99;;;6.86;100.00
55755;BME280;41674;52.290;-1.474;2023-11-21T06:12:02;101455.00;;;6.15;100.00
55755;BME280;41674;52.290;-1.474;2023-11-21T06:14:31;101453.38;;;5.82;100.00
55755;BME280;41674;52.290;-1.474;2023-11-21T06:17:02;101460.89;;;6.27;100.00
55755;BME280;41674;52.290;-1.474;2023-11-21T06:19:31;101464.71;;;5.98;100.00
55755;BME280;41674;52.290;-1.474;2023-11-21T06:22:00;101463.90;;;6.13;100.00
55755;BME280;41674;52.290;-1.474;2023-11-21T06:24:30;101469.86;;;6.11;100.00
55755;BME280;41674;52.290;-1.474;2023-11-21T06:26:59;101471.44;;;6.14;100.00
55755;BME280;41674;52.290;-1.474;2023-11-21T06:29:29;101469.35;;;5.89;100.00
55755;BME280;41674;52.290;-1.474;2023-11-21T06:31:59;101473.00;;;5.91;100.00
55755;BME280;41674;52.290;-1.474;2023-11-21T06:34:28;101481.35;;;6.18;100.00
55755;BME280;41674;52.290;-1.474;2023-11-21T06:36:58;101490.01;;;5.63;100.00
55755;BME280;41674;52.290;-1.474;2023-11-21T06:39:27;101502.28;;;5.51;100.00
55755;BME280;41674;52.290;-1.474;2023-11-21T06:41:57;101505.51;;;5.91;100.00
55755;BME280;41674;52.290;-1.474;2023-11-21T06:44:28;101507.45;;;5.62;100.00
55755;BME280;41674;52.290;-1.474;2023-11-21T06:46:56;101509.51;;;5.79;100.00
55755;BME280;41674;52.290;-1.474;2023-11-21T06:49:26;101511.24;;;6.11;100.00
55755;BME280;41674;52.290;-1.474;2023-11-21T06:51:56;101513.73;;;5.97;100.00
55755;BME280;41674;52.290;-1.474;2023-11-21T06:54:26;101515.67;;;5.58;100.00
55755;BME280;41674;52.290;-1.474;2023-11-21T06:56:55;101518.28;;;5.49;100.00
55755;BME280;41674;52.290;-1.474;2023-11-21T06:59:24;101519.72;;;5.56;100.00
55755;BME280;41674;52.290;-1.474;2023-11-21T07:01:54;101523.73;;;5.55;100.00
55755;BME280;41674;52.290;-1.474;2023-11-21T07:04:24;101522.24;;;5.76;100.00
55755;BME280;41674;52.290;-1.474;2023-11-21T07:06:54;101522.92;;;5.93;100.00
55755;BME280;41674;52.290;-1.474;2023-11-21T07:09:23;101524.82;;;6.42;100.00
55755;BME280;41674;52.290;-1.474;2023-11-21T07:11:53;101525.67;;;5.61;100.00
55755;BME280;41674;52.290;-1.474;2023-11-21T07:14:22;101538.12;;;5.55;100.00
55755;BME280;41674;52.290;-1.474;2023-11-21T07:16:52;101548.58;;;5.14;100.00
55755;BME280;41674;52.290;-1.474;2023-11-21T07:19:21;101556.37;;;5.56;100.00
55755;BME280;41674;52.290;-1.474;2023-11-21T07:21:51;101559.63;;;5.45;100.00
55755;BME280;41674;52.290;-1.474;2023-11-21T07:24:21;101559.08;;;5.55;100.00
55755;BME280;41674;52.290;-1.474;2023-11-21T07:26:50;101561.64;;;5.41;100.00
55755;BME280;41674;52.290;-1.474;2023-11-21T07:29:21;101561.40;;;5.40;100.00
55755;BME280;41674;52.290;-1.474;2023-11-21T07:31:50;101565.81;;;5.21;100.00
55755;BME280;41674;52.290;-1.474;2023-11-21T07:34:20;101564.28;;;5.70;100.00
55755;BME280;41674;52.290;-1.474;2023-11-21T07:36:49;101569.42;;;5.68;100.00
55755;BME280;41674;52.290;-1.474;2023-11-21T07:39:19;101567.18;;;5.72;100.00
55755;BME280;41674;52.290;-1.474;2023-11-21T07:41:48;101568.84;;;5.48;100.00
55755;BME280;41674;52.290;-1.474;2023-11-21T07:44:18;101579.45;;;5.64;100.00
55755;BME280;41674;52.290;-1.474;2023-11-21T07:46:48;101579.17;;;5.20;100.00
55755;BME280;41674;52.290;-1.474;2023-11-21T07:49:17;101585.53;;;5.30;100.00
55755;BME280;41674;52.290;-1.474;2023-11-21T07:51:47;101588.30;;;5.59;100.00
55755;BME280;41674;52.290;-1.474;2023-11-21T07:54:17;101592.14;;;5.66;100.00
55755;BME280;41674;52.290;-1.474;2023-11-21T07:56:46;101601.67;;;5.18;100.00
55755;BME280;41674;52.290;-1.474;2023-11-21T07:59:15;101605.40;;;4.82;100.00
55755;BME280;41674;52.290;-1.474;2023-11-21T08:01:45;101610.35;;;4.89;100.00
55755;BME280;41674;52.290;-1.474;2023-11-21T08:04:15;101619.14;;;4.70;100.00
55755;BME280;41674;52.290;-1.474;2023-11-21T08:09:14;101621.05;;;4.99;100.00
55755;BME280;41674;52.290;-1.474;2023-11-21T08:11:49;101617.24;;;5.29;100.00
55755;BME280;41674;52.290;-1.474;2023-11-21T08:14:13;101619.65;;;5.14;100.00
55755;BME280;41674;52.290;-1.474;2023-11-21T08:16:43;101627.08;;;5.35;100.00
55755;BME280;41674;52.290;-1.474;2023-11-21T08:19:12;101633.28;;;5.32;100.00
55755;BME280;41674;52.290;-1.474;2023-11-21T08:21:44;101644.17;;;5.40;100.00
55755;BME280;41674;52.290;-1.474;2023-11-21T08:24:17;101649.07;;;5.36;100.00
55755;BME280;41674;52.290;-1.474;2023-11-21T08:29:11;101652.07;;;4.98;100.00
55755;BME280;41674;52.290;-1.474;2023-11-21T08:31:41;101665.22;;;5.26;100.00
55755;BME280;41674;52.290;-1.474;2023-11-21T08:34:10;101676.76;;;5.64;100.00
55755;BME280;41674;52.290;-1.474;2023-11-21T08:36:45;101673.97;;;5.42;100.00
55755;BME280;41674;52.290;-1.474;2023-11-21T08:39:10;101686.38;;;5.34;100.00
55755;BME280;41674;52.290;-1.474;2023-11-21T08:41:40;101695.32;;;5.19;100.00
55755;BME280;41674;52.290;-1.474;2023-11-21T08:44:09;101698.74;;;5.28;100.00
55755;BME280;41674;52.290;-1.474;2023-11-21T08:46:39;101700.89;;;5.59;100.00
55755;BME280;41674;52.290;-1.474;2023-11-21T08:49:13;101710.09;;;5.47;100.00
55755;BME280;41674;52.290;-1.474;2023-11-21T08:51:38;101719.16;;;5.07;100.00
55755;BME280;41674;52.290;-1.474;2023-11-21T08:54:13;101718.31;;;5.59;100.00
55755;BME280;41674;52.290;-1.474;2023-11-21T08:56:37;101716.73;;;5.98;100.00
55755;BME280;41674;52.290;-1.474;2023-11-21T08:59:06;101719.29;;;5.78;100.00
55755;BME280;41674;52.290;-1.474;2023-11-21T09:01:36;101724.19;;;6.28;100.00
55755;BME280;41674;52.290;-1.474;2023-11-21T09:04:06;101727.56;;;6.28;100.00
55755;BME280;41674;52.290;-1.474;2023-11-21T09:06:35;101729.73;;;6.22;100.00
55755;BME280;41674;52.290;-1.474;2023-11-21T09:09:05;101733.09;;;5.73;100.00
55755;BME280;41674;52.290;-1.474;2023-11-21T09:11:35;101732.05;;;6.78;100.00
55755;BME280;41674;52.290;-1.474;2023-11-21T09:14:06;101728.81;;;6.64;100.00
55755;BME280;41674;52.290;-1.474;2023-11-21T09:16:34;101731.31;;;7.12;100.00
55755;BME280;41674;52.290;-1.474;2023-11-21T09:19:04;101734.63;;;7.49;100.00
55755;BME280;41674;52.290;-1.474;2023-11-21T09:21:33;101740.91;;;7.66;100.00
55755;BME280;41674;52.290;-1.474;2023-11-21T09:24:04;101745.19;;;7.53;100.00
55755;BME280;41674;52.290;-1.474;2023-11-21T09:26:32;101745.78;;;6.87;100.00
55755;BME280;41674;52.290;-1.474;2023-11-21T09:29:02;101752.21;;;7.22;100.00
55755;BME280;41674;52.290;-1.474;2023-11-21T09:31:32;101753.65;;;6.75;100.00
55755;BME280;41674;52.290;-1.474;2023-11-21T09:34:01;101752.00;;;7.38;100.00
55755;BME280;41674;52.290;-1.474;2023-11-21T09:36:31;101755.90;;;6.76;100.00
55755;BME280;41674;52.290;-1.474;2023-11-21T09:39:01;101756.84;;;7.18;100.00
55755;BME280;41674;52.290;-1.474;2023-11-21T09:41:37;101759.28;;;6.43;100.00
55755;BME280;41674;52.290;-1.474;2023-11-21T09:44:08;101759.49;;;6.88;100.00
55755;BME280;41674;52.290;-1.474;2023-11-21T09:46:30;101764.22;;;7.05;100.00
55755;BME280;41674;52.290;-1.474;2023-11-21T09:49:00;101765.05;;;6.93;100.00
55755;BME280;41674;52.290;-1.474;2023-11-21T09:51:30;101767.10;;;7.45;100.00
55755;BME280;41674;52.290;-1.474;2023-11-21T09:54:00;101776.96;;;8.01;100.00
55755;BME280;41674;52.290;-1.474;2023-11-21T09:56:28;101781.31;;;7.55;100.00
55755;BME280;41674;52.290;-1.474;2023-11-21T09:58:58;101787.50;;;7.13;100.00
55755;BME280;41674;52.290;-1.474;2023-11-21T10:01:28;101793.14;;;6.67;100.00
55755;BME280;41674;52.290;-1.474;2023-11-21T10:03:56;101800.76;;;7.07;100.00
55755;BME280;41674;52.290;-1.474;2023-11-21T10:06:26;101805.90;;;7.04;100.00
55755;BME280;41674;52.290;-1.474;2023-11-21T10:08:56;101803.96;;;7.88;100.00
55755;BME280;41674;52.290;-1.474;2023-11-21T10:11:27;101804.39;;;6.98;100.00
55755;BME280;41674;52.290;-1.474;2023-11-21T10:13:55;101801.22;;;7.37;100.00
55755;BME280;41674;52.290;-1.474;2023-11-21T10:16:26;101821.44;;;7.46;100.00
55755;BME280;41674;52.290;-1.474;2023-11-21T10:18:55;101816.25;;;6.49;100.00
55755;BME280;41674;52.290;-1.474;2023-11-21T10:21:29;101828.59;;;7.25;100.00
55755;BME280;41674;52.290;-1.474;2023-11-21T10:23:54;101832.00;;;7.34;100.00
55755;BME280;41674;52.290;-1.474;2023-11-21T10:26:23;101845.60;;;6.78;100.00
55755;BME280;41674;52.290;-1.474;2023-11-21T10:28:57;101851.00;;;7.34;100.00
55755;BME280;41674;52.290;-1.474;2023-11-21T10:31:22;101856.18;;;7.13;100.00
55755;BME280;41674;52.290;-1.474;2023-11-21T10:33:52;101853.77;;;7.41;100.00
55755;BME280;41674;52.290;-1.474;2023-11-21T10:36:29;101864.02;;;6.38;100.00
55755;BME280;41674;52.290;-1.474;2023-11-21T10:38:51;101864.43;;;6.99;100.00
55755;BME280;41674;52.290;-1.474;2023-11-21T10:41:21;101861.42;;;7.36;100.00
55755;BME280;41674;52.290;-1.474;2023-11-21T10:43:53;101870.13;;;7.13;100.00
55755;BME280;41674;52.290;-1.474;2023-11-21T10:46:20;101870.47;;;7.59;100.00
55755;BME280;41674;52.290;-1.474;2023-11-21T10:48:52;101877.34;;;6.84;100.00
55755;BME280;41674;52.290;-1.474;2023-11-21T10:51:25;101887.32;;;6.87;100.00
55755;BME280;41674;52.290;-1.474;2023-11-21T10:53:49;101879.95;;;7.63;100.00
55755;BME280;41674;52.290;-1.474;2023-11-21T10:56:19;101886.16;;;6.46;100.00
55755;BME280;41674;52.290;-1.474;2023-11-21T10:58:49;101885.92;;;7.76;100.00
55755;BME280;41674;52.290;-1.474;2023-11-21T11:01:18;101883.97;;;6.98;100.00
55755;BME280;41674;52.290;-1.474;2023-11-21T11:03:47;101883.87;;;7.59;100.00
55755;BME280;41674;52.290;-1.474;2023-11-21T11:06:17;101885.28;;;7.41;100.00
55755;BME280;41674;52.290;-1.474;2023-11-21T11:08:47;101886.84;;;7.87;100.00
55755;BME280;41674;52.290;-1.474;2023-11-21T11:11:16;101887.61;;;7.47;100.00
55755;BME280;41674;52.290;-1.474;2023-11-21T11:13:45;101896.29;;;7.41;100.00
55755;BME280;41674;52.290;-1.474;2023-11-21T11:16:15;101903.25;;;7.70;100.00
55755;BME280;41674;52.290;-1.474;2023-11-21T11:18:45;101907.06;;;7.32;100.00
55755;BME280;41674;52.290;-1.474;2023-11-21T11:21:26;101899.28;;;8.23;100.00
55755;BME280;41674;52.290;-1.474;2023-11-21T11:24:01;101903.63;;;8.38;97.85
55755;BME280;41674;52.290;-1.474;2023-11-21T11:26:24;101903.11;;;7.79;100.00
55755;BME280;41674;52.290;-1.474;2023-11-21T11:28:47;101903.23;;;7.60;100.00
55755;BME280;41674;52.290;-1.474;2023-11-21T11:31:19;101909.72;;;7.80;100.00
55755;BME280;41674;52.290;-1.474;2023-11-21T11:33:47;101913.22;;;7.95;99.43
55755;BME280;41674;52.290;-1.474;2023-11-21T11:36:17;101928.09;;;7.51;100.00
55755;BME280;41674;52.290;-1.474;2023-11-21T11:38:46;101933.01;;;7.13;100.00
55755;BME280;41674;52.290;-1.474;2023-11-21T11:41:11;101939.39;;;7.49;100.00
55755;BME280;41674;52.290;-1.474;2023-11-21T11:43:41;101939.59;;;7.29;100.00
55755;BME280;41674;52.290;-1.474;2023-11-21T11:46:12;101940.81;;;8.34;98.60
55755;BME280;41674;52.290;-1.474;2023-11-21T11:48:45;101944.91;;;7.68;100.00
55755;BME280;41674;52.290;-1.474;2023-11-21T11:51:11;101947.03;;;7.94;100.00
55755;BME280;41674;52.290;-1.474;2023-11-21T11:53:47;101955.88;;;7.45;100.00
55755;BME280;41674;52.290;-1.474;2023-11-21T11:56:19;101954.76;;;8.06;99.49
55755;BME280;41674;52.290;-1.474;2023-11-21T11:58:38;101958.73;;;7.60;100.00
55755;BME280;41674;52.290;-1.474;2023-11-21T12:01:08;101965.56;;;7.52;100.00
55755;BME280;41674;52.290;-1.474;2023-11-21T12:03:38;101962.74;;;7.36;100.00
55755;BME280;41674;52.290;-1.474;2023-11-21T12:06:07;101960.10;;;7.44;100.00
55755;BME280;41674;52.290;-1.474;2023-11-21T12:08:37;101959.23;;;7.98;96.96
55755;BME280;41674;52.290;-1.474;2023-11-21T12:11:06;101972.05;;;6.53;100.00
55755;BME280;41674;52.290;-1.474;2023-11-21T12:13:36;101961.40;;;7.83;100.00
55755;BME280;41674;52.290;-1.474;2023-11-21T12:16:07;101959.29;;;7.45;100.00
55755;BME280;41674;52.290;-1.474;2023-11-21T12:18:41;101969.88;;;8.22;100.00
55755;BME280;41674;52.290;-1.474;2023-11-21T12:21:10;101966.57;;;7.63;100.00
55755;BME280;41674;52.290;-1.474;2023-11-21T12:23:35;101971.19;;;8.15;97.76
55755;BME280;41674;52.290;-1.474;2023-11-21T12:26:05;101978.95;;;7.50;100.00
55755;BME280;41674;52.290;-1.474;2023-11-21T12:28:46;101982.77;;;6.84;100.00
55755;BME280;41674;52.290;-1.474;2023-11-21T12:31:04;101979.14;;;6.99;100.00
55755;BME280;41674;52.290;-1.474;2023-11-21T12:33:33;101980.18;;;7.24;100.00
55755;BME280;41674;52.290;-1.474;2023-11-21T12:36:04;101981.26;;;7.23;99.79
55755;BME280;41674;52.290;-1.474;2023-11-21T12:38:34;101977.63;;;7.04;100.00
55755;BME280;41674;52.290;-1.474;2023-11-21T12:41:02;101973.59;;;8.37;95.53
55755;BME280;41674;52.290;-1.474;2023-11-21T12:43:31;101973.94;;;8.27;94.53
55755;BME280;41674;52.290;-1.474;2023-11-21T12:46:07;101981.05;;;7.93;94.50
55755;BME280;41674;52.290;-1.474;2023-11-21T12:48:32;101988.82;;;7.81;95.37
55755;BME280;41674;52.290;-1.474;2023-11-21T12:51:00;101992.77;;;8.67;92.65
55755;BME280;41674;52.290;-1.474;2023-11-21T12:53:30;101998.08;;;8.43;94.48
55755;BME280;41674;52.290;-1.474;2023-11-21T12:55:59;101994.40;;;9.18;91.78
55755;BME280;41674;52.290;-1.474;2023-11-21T12:58:35;101992.74;;;8.83;91.46